sensor_id;sensor_type;location;lat;lon;timestamp;pressure;altitude;pressure_sealevel;temperature;humidity
32642;BME280;19323;56.072;9.698;2023-02-23T00:01:36;100485.34;;;24.87;39.10
32642;BME280;19323;56.072;9.698;2023-02-23T00:04:02;100482.69;;;24.87;39.27
32642;BME280;19323;56.072;9.698;2023-02-23T00:06:27;100483.50;;;24.87;39.02
32642;BME280;19323;56.072;9.698;2023-02-23T00:08:54;100481.66;;;24.88;39.02
32642;BME280;19323;56.072;9.698;2023-02-23T00:11:19;100480.84;;;24.87;39.14
32642;BME280;19323;56.072;9.698;2023-02-23T00:13:45;100481.84;;;24.86;39.09
32642;BME280;19323;56.072;9.698;2023-02-23T00:16:14;100474.66;;;24.87;39.21
32642;BME280;19323;56.072;9.698;2023-02-23T00:18:44;100477.47;;;24.85;39.11
32642;BME280;19323;56.072;9.698;2023-02-23T00:21:25;100474.66;;;24.87;38.98
32642;BME280;19323;56.072;9.698;2023-02-23T00:23:57;100471.13;;;24.86;39.09
32642;BME280;19323;56.072;9.698;2023-02-23T00:26:24;100471.13;;;24.86;39.01
32642;BME280;19323;56.072;9.698;2023-02-23T00:28:49;100463.09;;;24.86;39.11
32642;BME280;19323;56.072;9.698;2023-02-23T00:31:15;100463.94;;;24.87;39.29
32642;BME280;19323;56.072;9.698;2023-02-23T00:33:41;100459.56;;;24.86;38.95
32642;BME280;19323;56.072;9.698;2023-02-23T00:36:07;100458.56;;;24.87;39.06
32642;BME280;19323;56.072;9.698;2023-02-23T00:38:34;100460.41;;;24.86;39.09
32642;BME280;19323;56.072;9.698;2023-02-23T00:41:04;100450.53;;;24.87;38.88
32642;BME280;19323;56.072;9.698;2023-02-23T00:43:32;100443.47;;;24.86;38.99
32642;BME280;19323;56.072;9.698;2023-02-23T00:45:57;100444.34;;;24.86;39.09
32642;BME280;19323;56.072;9.698;2023-02-23T00:48:22;100444.34;;;24.86;38.95
32642;BME280;19323;56.072;9.698;2023-02-23T00:50:56;100448.69;;;24.87;39.02
32642;BME280;19323;56.072;9.698;2023-02-23T00:53:21;100438.13;;;24.86;38.92
32642;BME280;19323;56.072;9.698;2023-02-23T00:55:46;100439.00;;;24.86;39.09
32642;BME280;19323;56.072;9.698;2023-02-23T00:58:11;100439.00;;;24.86;39.03
32642;BME280;19323;56.072;9.698;2023-02-23T01:00:38;100429.25;;;24.85;38.96
32642;BME280;19323;56.072;9.698;2023-02-23T01:03:06;100433.63;;;24.86;39.05
32642;BME280;19323;56.072;9.698;2023-02-23T01:05:33;100430.94;;;24.86;39.00
32642;BME280;19323;56.072;9.698;2023-02-23T01:07:58;100425.59;;;24.86;39.16
32642;BME280;19323;56.072;9.698;2023-02-23T01:10:23;100436.31;;;24.86;39.06
32642;BME280;19323;56.072;9.698;2023-02-23T01:12:49;100426.56;;;24.85;39.07
32642;BME280;19323;56.072;9.698;2023-02-23T01:15:14;100423.91;;;24.85;39.12
32642;BME280;19323;56.072;9.698;2023-02-23T01:17:40;100422.06;;;24.86;39.11
32642;BME280;19323;56.072;9.698;2023-02-23T01:20:07;100424.91;;;24.84;38.98
32642;BME280;19323;56.072;9.698;2023-02-23T01:22:40;100431.94;;;24.85;38.91
32642;BME280;19323;56.072;9.698;2023-02-23T01:25:06;100395.03;;;24.63;39.15
32642;BME280;19323;56.072;9.698;2023-02-23T01:27:31;100421.22;;;24.85;39.00
32642;BME280;19323;56.072;9.698;2023-02-23T01:29:57;100421.22;;;24.85;38.93
32642;BME280;19323;56.072;9.698;2023-02-23T01:32:22;100421.22;;;24.85;39.08
32642;BME280;19323;56.072;9.698;2023-02-23T01:34:48;100418.53;;;24.85;39.06
32642;BME280;19323;56.072;9.698;2023-02-23T01:37:13;100412.34;;;24.85;38.86
32642;BME280;19323;56.072;9.698;2023-02-23T01:39:38;100416.88;;;24.84;39.02
32642;BME280;19323;56.072;9.698;2023-02-23T01:42:05;100413.19;;;24.85;39.08
32642;BME280;19323;56.072;9.698;2023-02-23T01:46:56;100407.81;;;24.85;38.89
32642;BME280;19323;56.072;9.698;2023-02-23T01:49:23;100405.16;;;24.85;38.93
32642;BME280;19323;56.072;9.698;2023-02-23T01:52:02;100402.47;;;24.85;39.14
32642;BME280;19323;56.072;9.698;2023-02-23T01:54:38;100394.44;;;24.85;39.10
32642;BME280;19323;56.072;9.698;2023-02-23T01:57:04;100404.31;;;24.85;38.91
32642;BME280;19323;56.072;9.698;2023-02-23T01:59:40;100403.47;;;24.84;39.10
32642;BME280;19323;56.072;9.698;2023-02-23T02:02:06;100401.63;;;24.85;39.11
32642;BME280;19323;56.072;9.698;2023-02-23T02:04:33;100403.47;;;24.84;39.06
32642;BME280;19323;56.072;9.698;2023-02-23T02:07:07;100406.16;;;24.84;38.98
32642;BME280;19323;56.072;9.698;2023-02-23T02:09:33;100405.34;;;24.84;39.03
32642;BME280;19323;56.072;9.698;2023-02-23T02:12:18;100413.38;;;24.84;39.00
32642;BME280;19323;56.072;9.698;2023-02-23T02:14:47;100414.19;;;24.84;38.86
32642;BME280;19323;56.072;9.698;2023-02-23T02:27:50;100405.47;;;24.82;39.11
32642;BME280;19323;56.072;9.698;2023-02-23T02:30:35;100410.00;;;24.82;38.92
32642;BME280;19323;56.072;9.698;2023-02-23T02:38:04;100396.63;;;24.82;38.84
32642;BME280;19323;56.072;9.698;2023-02-23T02:43:21;100389.41;;;24.82;38.91
32642;BME280;19323;56.072;9.698;2023-02-23T02:46:21;100384.22;;;24.81;38.88
32642;BME280;19323;56.072;9.698;2023-02-23T02:48:43;100379.69;;;24.81;39.11
32642;BME280;19323;56.072;9.698;2023-02-23T02:51:28;100377.00;;;24.81;39.14
32642;BME280;19323;56.072;9.698;2023-02-23T02:54:02;100377.88;;;24.82;38.87
32642;BME280;19323;56.072;9.698;2023-02-23T02:56:30;100372.50;;;24.82;38.87
32642;BME280;19323;56.072;9.698;2023-02-23T02:58:57;100374.31;;;24.81;39.10
32642;BME280;19323;56.072;9.698;2023-02-23T03:01:23;100370.81;;;24.81;39.10
32642;BME280;19323;56.072;9.698;2023-02-23T03:04:21;100376.03;;;24.82;38.92
32642;BME280;19323;56.072;9.698;2023-02-23T03:07:19;100379.69;;;24.81;38.84
32642;BME280;19323;56.072;9.698;2023-02-23T03:10:11;100375.34;;;24.80;38.90
32642;BME280;19323;56.072;9.698;2023-02-23T03:13:00;100370.13;;;24.79;38.94
32642;BME280;19323;56.072;9.698;2023-02-23T03:15:59;100369.31;;;24.78;39.21
32642;BME280;19323;56.072;9.698;2023-02-23T03:21:32;100351.38;;;24.79;38.99
32642;BME280;19323;56.072;9.698;2023-02-23T03:24:28;100347.88;;;24.78;39.17
32642;BME280;19323;56.072;9.698;2023-02-23T03:27:28;100343.19;;;24.80;39.11
32642;BME280;19323;56.072;9.698;2023-02-23T03:30:20;100338.00;;;24.79;38.93
32642;BME280;19323;56.072;9.698;2023-02-23T03:33:10;100337.84;;;24.80;39.15
32642;BME280;19323;56.072;9.698;2023-02-23T03:36:01;100332.47;;;24.80;39.20
32642;BME280;19323;56.072;9.698;2023-02-23T03:38:57;100330.78;;;24.79;39.07
32642;BME280;19323;56.072;9.698;2023-02-23T03:41:43;100337.16;;;24.78;39.22
32642;BME280;19323;56.072;9.698;2023-02-23T03:44:31;100333.66;;;24.78;39.17
32642;BME280;19323;56.072;9.698;2023-02-23T03:47:16;100342.53;;;24.78;39.03
32642;BME280;19323;56.072;9.698;2023-02-23T03:50:03;100337.16;;;24.78;38.99
32642;BME280;19323;56.072;9.698;2023-02-23T03:52:49;100343.34;;;24.79;39.23
32642;BME280;19323;56.072;9.698;2023-02-23T03:55:36;100345.19;;;24.78;39.02
32642;BME280;19323;56.072;9.698;2023-02-23T03:58:43;100345.19;;;24.78;39.12
32642;BME280;19323;56.072;9.698;2023-02-23T04:01:27;100350.72;;;24.77;39.11
32642;BME280;19323;56.072;9.698;2023-02-23T04:04:12;100348.88;;;24.77;39.24
32642;BME280;19323;56.072;9.698;2023-02-23T04:06:57;100343.50;;;24.77;39.16
32642;BME280;19323;56.072;9.698;2023-02-23T04:09:42;100343.50;;;24.77;39.25
32642;BME280;19323;56.072;9.698;2023-02-23T04:12:33;100351.38;;;24.79;39.08
32642;BME280;19323;56.072;9.698;2023-02-23T04:15:26;100352.56;;;24.76;39.26
32642;BME280;19323;56.072;9.698;2023-02-23T04:17:52;100345.34;;;24.77;39.12
32642;BME280;19323;56.072;9.698;2023-02-23T04:20:18;100339.16;;;24.76;39.29
32642;BME280;19323;56.072;9.698;2023-02-23T04:22:43;100339.16;;;24.76;39.25
32642;BME280;19323;56.072;9.698;2023-02-23T04:25:08;100334.81;;;24.75;39.34
32642;BME280;19323;56.072;9.698;2023-02-23T04:27:34;100328.44;;;24.76;39.29
32642;BME280;19323;56.072;9.698;2023-02-23T04:29:59;100332.97;;;24.76;39.37
32642;BME280;19323;56.072;9.698;2023-02-23T04:32:25;100332.16;;;24.75;39.18
32642;BME280;19323;56.072;9.698;2023-02-23T04:34:50;100325.78;;;24.76;39.17
32642;BME280;19323;56.072;9.698;2023-02-23T04:37:15;100323.94;;;24.77;39.24
32642;BME280;19323;56.072;9.698;2023-02-23T04:39:40;100323.09;;;24.76;39.25
32642;BME280;19323;56.072;9.698;2023-02-23T04:42:13;100322.94;;;24.78;39.30
32642;BME280;19323;56.072;9.698;2023-02-23T04:44:39;100320.25;;;24.78;39.38
32642;BME280;19323;56.072;9.698;2023-02-23T04:47:04;100318.41;;;24.78;39.40
32642;BME280;19323;56.072;9.698;2023-02-23T04:49:29;100317.59;;;24.78;39.54
32642;BME280;19323;56.072;9.698;2023-02-23T04:51:55;100326.59;;;24.77;39.61
32642;BME280;19323;56.072;9.698;2023-02-23T04:54:20;100325.78;;;24.76;39.69
32642;BME280;19323;56.072;9.698;2023-02-23T04:56:45;100331.97;;;24.77;39.50
32642;BME280;19323;56.072;9.698;2023-02-23T04:59:10;100328.44;;;24.76;39.48
32642;BME280;19323;56.072;9.698;2023-02-23T05:01:35;100324.94;;;24.76;39.67
32642;BME280;19323;56.072;9.698;2023-02-23T05:04:01;100317.75;;;24.76;39.67
32642;BME280;19323;56.072;9.698;2023-02-23T05:06:26;100325.78;;;24.76;39.71
32642;BME280;19323;56.072;9.698;2023-02-23T05:08:51;100330.31;;;24.76;39.62
32642;BME280;19323;56.072;9.698;2023-02-23T05:11:16;100322.25;;;24.76;39.65
32642;BME280;19323;56.072;9.698;2023-02-23T05:13:42;100316.09;;;24.75;39.88
32642;BME280;19323;56.072;9.698;2023-02-23T05:16:07;100328.44;;;24.76;39.75
32642;BME280;19323;56.072;9.698;2023-02-23T05:18:32;100323.09;;;24.76;39.83
32642;BME280;19323;56.072;9.698;2023-02-23T05:21:02;100323.09;;;24.76;39.77
32642;BME280;19323;56.072;9.698;2023-02-23T05:23:27;100320.56;;;24.75;39.91
32642;BME280;19323;56.072;9.698;2023-02-23T05:25:53;100315.41;;;24.73;40.01
32642;BME280;19323;56.072;9.698;2023-02-23T05:28:23;100314.38;;;24.74;40.06
32642;BME280;19323;56.072;9.698;2023-02-23T05:30:48;100312.72;;;24.73;39.99
32642;BME280;19323;56.072;9.698;2023-02-23T05:33:13;100311.72;;;24.74;40.15
32642;BME280;19323;56.072;9.698;2023-02-23T05:35:39;100320.56;;;24.75;40.03
32642;BME280;19323;56.072;9.698;2023-02-23T05:38:05;100313.41;;;24.75;40.32
32642;BME280;19323;56.072;9.698;2023-02-23T05:40:30;100324.94;;;24.76;40.14
32642;BME280;19323;56.072;9.698;2023-02-23T05:42:59;100318.75;;;24.75;40.23
32642;BME280;19323;56.072;9.698;2023-02-23T05:45:24;100312.53;;;24.75;40.07
32642;BME280;19323;56.072;9.698;2023-02-23T05:47:49;100311.56;;;24.76;40.26
32642;BME280;19323;56.072;9.698;2023-02-23T05:50:16;100316.09;;;24.75;40.44
32642;BME280;19323;56.072;9.698;2023-02-23T05:52:41;100318.41;;;24.78;40.61
32642;BME280;19323;56.072;9.698;2023-02-23T05:55:07;100320.25;;;24.78;40.51
32642;BME280;19323;56.072;9.698;2023-02-23T05:57:33;100321.09;;;24.78;40.53
32642;BME280;19323;56.072;9.698;2023-02-23T05:59:58;100313.06;;;24.78;40.76
32642;BME280;19323;56.072;9.698;2023-02-23T06:02:23;100315.75;;;24.78;40.81
32642;BME280;19323;56.072;9.698;2023-02-23T06:04:49;100318.41;;;24.78;41.09
32642;BME280;19323;56.072;9.698;2023-02-23T06:07:14;100315.75;;;24.78;41.20
32642;BME280;19323;56.072;9.698;2023-02-23T06:09:39;100316.41;;;24.80;41.54
32642;BME280;19323;56.072;9.698;2023-02-23T06:12:05;100311.06;;;24.80;41.67
32642;BME280;19323;56.072;9.698;2023-02-23T06:14:30;100314.56;;;24.81;41.67
32642;BME280;19323;56.072;9.698;2023-02-23T06:16:56;100312.72;;;24.81;41.73
32642;BME280;19323;56.072;9.698;2023-02-23T06:19:21;100310.91;;;24.82;41.98
32642;BME280;19323;56.072;9.698;2023-02-23T06:21:46;100319.78;;;24.82;41.76
32642;BME280;19323;56.072;9.698;2023-02-23T06:24:12;100315.25;;;24.83;41.89
32642;BME280;19323;56.072;9.698;2023-02-23T06:26:37;100319.78;;;24.82;41.80
32642;BME280;19323;56.072;9.698;2023-02-23T06:29:02;100322.44;;;24.82;41.65
32642;BME280;19323;56.072;9.698;2023-02-23T06:31:27;100326.97;;;24.82;41.70
32642;BME280;19323;56.072;9.698;2023-02-23T06:33:52;100324.28;;;24.82;41.67
32642;BME280;19323;56.072;9.698;2023-02-23T06:36:17;100328.78;;;24.81;41.74
32642;BME280;19323;56.072;9.698;2023-02-23T06:38:42;100333.31;;;24.81;41.68
32642;BME280;19323;56.072;9.698;2023-02-23T06:41:09;100328.78;;;24.81;41.68
32642;BME280;19323;56.072;9.698;2023-02-23T06:43:34;100331.47;;;24.81;41.96
32642;BME280;19323;56.072;9.698;2023-02-23T06:46:00;100328.97;;;24.80;41.94
32642;BME280;19323;56.072;9.698;2023-02-23T06:48:25;100338.66;;;24.81;42.10
32642;BME280;19323;56.072;9.698;2023-02-23T06:50:51;100332.47;;;24.80;42.32
32642;BME280;19323;56.072;9.698;2023-02-23T06:53:16;100329.81;;;24.80;41.87
32642;BME280;19323;56.072;9.698;2023-02-23T06:55:42;100329.81;;;24.80;41.71
32642;BME280;19323;56.072;9.698;2023-02-23T06:58:07;100332.47;;;24.80;41.42
32642;BME280;19323;56.072;9.698;2023-02-23T07:00:32;100335.84;;;24.82;41.39
32642;BME280;19323;56.072;9.698;2023-02-23T07:02:57;100333.16;;;24.82;41.24
32642;BME280;19323;56.072;9.698;2023-02-23T07:05:23;100331.31;;;24.83;41.07
32642;BME280;19323;56.072;9.698;2023-02-23T07:07:49;100343.53;;;24.85;41.06
32642;BME280;19323;56.072;9.698;2023-02-23T07:10:14;100337.19;;;24.86;40.79
32642;BME280;19323;56.072;9.698;2023-02-23T07:12:39;100338.84;;;24.87;40.71
32642;BME280;19323;56.072;9.698;2023-02-23T07:15:04;100339.53;;;24.90;40.60
32642;BME280;19323;56.072;9.698;2023-02-23T07:17:30;100338.53;;;24.91;40.55
32642;BME280;19323;56.072;9.698;2023-02-23T07:19:55;100349.06;;;24.92;40.33
32642;BME280;19323;56.072;9.698;2023-02-23T07:22:20;100347.25;;;24.93;40.29
32642;BME280;19323;56.072;9.698;2023-02-23T07:24:46;100357.97;;;24.93;40.29
32642;BME280;19323;56.072;9.698;2023-02-23T07:27:12;100360.47;;;24.94;40.28
32642;BME280;19323;56.072;9.698;2023-02-23T07:29:37;100353.44;;;24.93;40.21
32642;BME280;19323;56.072;9.698;2023-02-23T07:32:02;100362.31;;;24.94;40.38
32642;BME280;19323;56.072;9.698;2023-02-23T07:34:27;100357.09;;;24.92;40.30
32642;BME280;19323;56.072;9.698;2023-02-23T07:36:52;100359.78;;;24.92;40.47
32642;BME280;19323;56.072;9.698;2023-02-23T07:39:18;100351.75;;;24.92;40.71
32642;BME280;19323;56.072;9.698;2023-02-23T07:41:43;100350.91;;;24.92;40.54
32642;BME280;19323;56.072;9.698;2023-02-23T07:44:08;100355.44;;;24.91;40.64
32642;BME280;19323;56.072;9.698;2023-02-23T07:46:33;100356.44;;;24.90;40.79
32642;BME280;19323;56.072;9.698;2023-02-23T07:48:58;100351.25;;;24.88;40.72
32642;BME280;19323;56.072;9.698;2023-02-23T07:51:23;100357.44;;;24.89;40.57
32642;BME280;19323;56.072;9.698;2023-02-23T07:53:49;100359.31;;;24.88;40.70
32642;BME280;19323;56.072;9.698;2023-02-23T07:56:14;100362.97;;;24.87;40.75
32642;BME280;19323;56.072;9.698;2023-02-23T07:58:40;100361.13;;;24.88;40.90
32642;BME280;19323;56.072;9.698;2023-02-23T08:01:06;100354.94;;;24.87;40.84
32642;BME280;19323;56.072;9.698;2023-02-23T08:03:31;100348.75;;;24.87;40.70
32642;BME280;19323;56.072;9.698;2023-02-23T08:05:56;100357.59;;;24.87;40.97
32642;BME280;19323;56.072;9.698;2023-02-23T08:08:21;100348.75;;;24.87;40.82
32642;BME280;19323;56.072;9.698;2023-02-23T08:10:46;100347.03;;;24.86;40.79
32642;BME280;19323;56.072;9.698;2023-02-23T08:13:12;100342.56;;;24.86;40.92
32642;BME280;19323;56.072;9.698;2023-02-23T08:15:37;100346.22;;;24.85;40.89
32642;BME280;19323;56.072;9.698;2023-02-23T08:18:03;100350.59;;;24.86;40.89
32642;BME280;19323;56.072;9.698;2023-02-23T08:20:29;100350.59;;;24.86;41.07
32642;BME280;19323;56.072;9.698;2023-02-23T08:22:55;100352.41;;;24.86;40.93
32642;BME280;19323;56.072;9.698;2023-02-23T08:25:20;100347.03;;;24.86;40.98
32642;BME280;19323;56.072;9.698;2023-02-23T08:27:45;100348.75;;;24.87;41.14
32642;BME280;19323;56.072;9.698;2023-02-23T08:30:11;100347.72;;;24.88;41.12
32642;BME280;19323;56.072;9.698;2023-02-23T08:32:37;100348.59;;;24.88;41.07
32642;BME280;19323;56.072;9.698;2023-02-23T08:35:03;100350.25;;;24.90;41.15
32642;BME280;19323;56.072;9.698;2023-02-23T08:37:28;100351.25;;;24.88;41.15
32642;BME280;19323;56.072;9.698;2023-02-23T08:39:54;100352.09;;;24.89;41.34
32642;BME280;19323;56.072;9.698;2023-02-23T08:42:19;100355.59;;;24.90;41.28
32642;BME280;19323;56.072;9.698;2023-02-23T08:44:45;100355.59;;;24.90;41.27
32642;BME280;19323;56.072;9.698;2023-02-23T08:47:10;100352.94;;;24.90;41.42
32642;BME280;19323;56.072;9.698;2023-02-23T08:49:35;100351.94;;;24.91;41.55
32642;BME280;19323;56.072;9.698;2023-02-23T08:52:00;100341.22;;;24.91;41.34
32642;BME280;19323;56.072;9.698;2023-02-23T08:54:25;100350.09;;;24.91;41.31
32642;BME280;19323;56.072;9.698;2023-02-23T08:56:53;100348.25;;;24.92;41.36
32642;BME280;19323;56.072;9.698;2023-02-23T08:59:19;100349.06;;;24.92;41.36
32642;BME280;19323;56.072;9.698;2023-02-23T09:01:44;100348.25;;;24.92;41.50
32642;BME280;19323;56.072;9.698;2023-02-23T09:04:09;100342.72;;;24.93;41.63
32642;BME280;19323;56.072;9.698;2023-02-23T09:06:35;100341.91;;;24.93;41.52
32642;BME280;19323;56.072;9.698;2023-02-23T09:09:00;100341.91;;;24.93;41.57
32642;BME280;19323;56.072;9.698;2023-02-23T09:11:25;100344.56;;;24.93;41.49
32642;BME280;19323;56.072;9.698;2023-02-23T09:13:51;100350.91;;;24.92;41.49
32642;BME280;19323;56.072;9.698;2023-02-23T09:16:16;100348.91;;;24.94;41.44
32642;BME280;19323;56.072;9.698;2023-02-23T09:18:41;100352.63;;;24.93;41.63
32642;BME280;19323;56.072;9.698;2023-02-23T09:21:07;100353.44;;;24.93;41.58
32642;BME280;19323;56.072;9.698;2023-02-23T09:23:35;100355.09;;;24.94;41.49
32642;BME280;19323;56.072;9.698;2023-02-23T09:26:03;100358.81;;;24.93;41.50
32642;BME280;19323;56.072;9.698;2023-02-23T09:28:28;100352.44;;;24.94;41.56
32642;BME280;19323;56.072;9.698;2023-02-23T09:30:54;100356.13;;;24.93;41.56
32642;BME280;19323;56.072;9.698;2023-02-23T09:33:20;100346.25;;;24.94;41.58
32642;BME280;19323;56.072;9.698;2023-02-23T09:35:45;100349.75;;;24.94;41.50
32642;BME280;19323;56.072;9.698;2023-02-23T09:38:10;100356.97;;;24.94;41.39
32642;BME280;19323;56.072;9.698;2023-02-23T09:40:42;100358.63;;;24.95;41.57
32642;BME280;19323;56.072;9.698;2023-02-23T09:43:12;100363.00;;;24.96;41.63
32642;BME280;19323;56.072;9.698;2023-02-23T09:45:46;100363.16;;;24.94;41.48
32642;BME280;19323;56.072;9.698;2023-02-23T09:48:20;100364.84;;;24.95;41.53
32642;BME280;19323;56.072;9.698;2023-02-23T09:50:48;100367.53;;;24.95;41.52
32642;BME280;19323;56.072;9.698;2023-02-23T09:53:25;100366.50;;;24.96;41.60
32642;BME280;19323;56.072;9.698;2023-02-23T09:55:53;100368.34;;;24.96;41.43
32642;BME280;19323;56.072;9.698;2023-02-23T09:58:23;100369.19;;;24.96;41.35
32642;BME280;19323;56.072;9.698;2023-02-23T10:01:05;100363.00;;;24.96;41.38
32642;BME280;19323;56.072;9.698;2023-02-23T10:03:38;100371.84;;;24.96;41.63
32642;BME280;19323;56.072;9.698;2023-02-23T10:06:07;100364.66;;;24.97;41.32
32642;BME280;19323;56.072;9.698;2023-02-23T10:11:40;100370.00;;;24.97;41.31
32642;BME280;19323;56.072;9.698;2023-02-23T10:19:24;100366.34;;;24.98;41.34
32642;BME280;19323;56.072;9.698;2023-02-23T10:21:55;100361.97;;;24.97;41.32
32642;BME280;19323;56.072;9.698;2023-02-23T10:24:21;100358.31;;;24.98;41.28
32642;BME280;19323;56.072;9.698;2023-02-23T10:26:53;100369.84;;;24.98;41.30
32642;BME280;19323;56.072;9.698;2023-02-23T10:29:25;100368.00;;;24.99;41.21
32642;BME280;19323;56.072;9.698;2023-02-23T10:31:53;100359.97;;;24.99;41.32
32642;BME280;19323;56.072;9.698;2023-02-23T10:34:20;100361.66;;;25.00;41.13
32642;BME280;19323;56.072;9.698;2023-02-23T10:36:51;100367.84;;;25.00;41.33
32642;BME280;19323;56.072;9.698;2023-02-23T10:39:17;100362.50;;;25.00;41.08
32642;BME280;19323;56.072;9.698;2023-02-23T10:41:42;100366.00;;;25.01;41.10
32642;BME280;19323;56.072;9.698;2023-02-23T10:44:16;100367.69;;;25.02;41.01
32642;BME280;19323;56.072;9.698;2023-02-23T10:46:43;100360.50;;;25.02;41.19
32642;BME280;19323;56.072;9.698;2023-02-23T10:49:14;100364.84;;;25.03;40.95
32642;BME280;19323;56.072;9.698;2023-02-23T10:51:41;100360.34;;;25.04;41.14
32642;BME280;19323;56.072;9.698;2023-02-23T10:56:51;100356.63;;;25.05;41.21
32642;BME280;19323;56.072;9.698;2023-02-23T10:59:19;100358.34;;;25.06;41.12
32642;BME280;19323;56.072;9.698;2023-02-23T11:01:46;100348.44;;;25.06;40.99
32642;BME280;19323;56.072;9.698;2023-02-23T11:04:18;100346.59;;;25.07;41.16
32642;BME280;19323;56.072;9.698;2023-02-23T11:06:45;100342.94;;;25.08;40.99
32642;BME280;19323;56.072;9.698;2023-02-23T11:11:40;100343.56;;;25.10;40.92
32642;BME280;19323;56.072;9.698;2023-02-23T11:14:22;100343.41;;;25.12;41.06
32642;BME280;19323;56.072;9.698;2023-02-23T11:16:48;100346.94;;;25.12;40.96
32642;BME280;19323;56.072;9.698;2023-02-23T11:19:25;100345.94;;;25.13;41.03
32642;BME280;19323;56.072;9.698;2023-02-23T11:21:53;100337.91;;;25.13;40.89
32642;BME280;19323;56.072;9.698;2023-02-23T11:26:45;100342.25;;;25.14;40.88
32642;BME280;19323;56.072;9.698;2023-02-23T11:29:13;100328.84;;;25.14;40.92
32642;BME280;19323;56.072;9.698;2023-02-23T11:31:39;100330.53;;;25.15;40.77
32642;BME280;19323;56.072;9.698;2023-02-23T11:34:09;100331.22;;;25.17;40.61
32642;BME280;19323;56.072;9.698;2023-02-23T11:36:43;100333.88;;;25.17;40.81
32642;BME280;19323;56.072;9.698;2023-02-23T11:41:40;100333.88;;;25.17;40.69
32642;BME280;19323;56.072;9.698;2023-02-23T11:44:05;100332.88;;;25.18;40.68
32642;BME280;19323;56.072;9.698;2023-02-23T11:46:31;100335.53;;;25.18;40.76
32642;BME280;19323;56.072;9.698;2023-02-23T11:48:58;100336.38;;;25.19;40.74
32642;BME280;19323;56.072;9.698;2023-02-23T11:51:32;100335.53;;;25.18;40.73
32642;BME280;19323;56.072;9.698;2023-02-23T11:53:57;100335.53;;;25.18;40.69
32642;BME280;19323;56.072;9.698;2023-02-23T11:56:24;100340.91;;;25.18;40.69
32642;BME280;19323;56.072;9.698;2023-02-23T11:59:00;100338.22;;;25.18;40.79
32642;BME280;19323;56.072;9.698;2023-02-23T12:01:42;100339.94;;;25.19;40.61
32642;BME280;19323;56.072;9.698;2023-02-23T12:04:21;100337.28;;;25.19;40.77
32642;BME280;19323;56.072;9.698;2023-02-23T12:06:47;100339.94;;;25.19;40.82
32642;BME280;19323;56.072;9.698;2023-02-23T12:09:19;100337.28;;;25.19;40.57
32642;BME280;19323;56.072;9.698;2023-02-23T12:14:32;100332.88;;;25.18;40.84
32642;BME280;19323;56.072;9.698;2023-02-23T12:17:01;100330.19;;;25.18;40.60
32642;BME280;19323;56.072;9.698;2023-02-23T12:19:39;100330.19;;;25.18;40.85
32642;BME280;19323;56.072;9.698;2023-02-23T12:22:16;100316.78;;;25.18;40.71
32642;BME280;19323;56.072;9.698;2023-02-23T12:27:15;100316.78;;;25.18;40.70
32642;BME280;19323;56.072;9.698;2023-02-23T12:32:19;100315.84;;;25.19;40.63
32642;BME280;19323;56.072;9.698;2023-02-23T12:35:00;100318.50;;;25.19;40.61
32642;BME280;19323;56.072;9.698;2023-02-23T12:37:39;100319.34;;;25.20;40.61
32642;BME280;19323;56.072;9.698;2023-02-23T12:40:10;100313.97;;;25.20;40.53
32642;BME280;19323;56.072;9.698;2023-02-23T12:45:27;100318.31;;;25.21;40.23
32642;BME280;19323;56.072;9.698;2023-02-23T12:50:32;100325.53;;;25.20;40.58
32642;BME280;19323;56.072;9.698;2023-02-23T12:53:03;100328.22;;;25.20;40.25
32642;BME280;19323;56.072;9.698;2023-02-23T12:55:35;100329.91;;;25.21;40.19
32642;BME280;19323;56.072;9.698;2023-02-23T13:01:00;100340.63;;;25.21;40.39
32642;BME280;19323;56.072;9.698;2023-02-23T13:03:32;100335.25;;;25.21;40.25
32642;BME280;19323;56.072;9.698;2023-02-23T13:06:05;100329.03;;;25.21;40.39
32642;BME280;19323;56.072;9.698;2023-02-23T13:13:49;100329.91;;;25.21;40.19
32642;BME280;19323;56.072;9.698;2023-02-23T13:16:16;100319.00;;;25.23;40.23
32642;BME280;19323;56.072;9.698;2023-02-23T13:18:55;100310.94;;;25.23;40.21
32642;BME280;19323;56.072;9.698;2023-02-23T13:21:38;100319.84;;;25.23;40.15
32642;BME280;19323;56.072;9.698;2023-02-23T13:24:06;100314.50;;;25.23;40.22
32642;BME280;19323;56.072;9.698;2023-02-23T13:26:40;100306.44;;;25.23;40.27
32642;BME280;19323;56.072;9.698;2023-02-23T13:31:42;100314.50;;;25.23;40.29
32642;BME280;19323;56.072;9.698;2023-02-23T13:34:10;100309.13;;;25.23;40.14
32642;BME280;19323;56.072;9.698;2023-02-23T13:36:36;100314.31;;;25.25;39.95
32642;BME280;19323;56.072;9.698;2023-02-23T13:44:42;100307.28;;;25.24;40.01
32642;BME280;19323;56.072;9.698;2023-02-23T13:52:21;100320.16;;;25.20;39.98
32642;BME280;19323;56.072;9.698;2023-02-23T13:54:52;100306.91;;;25.19;40.06
32642;BME280;19323;56.072;9.698;2023-02-23T13:57:20;100307.91;;;25.18;40.03
32642;BME280;19323;56.072;9.698;2023-02-23T13:59:46;100312.44;;;25.17;39.86
32642;BME280;19323;56.072;9.698;2023-02-23T14:04:57;100311.78;;;25.15;39.94
32642;BME280;19323;56.072;9.698;2023-02-23T14:07:29;100318.97;;;25.15;40.03
32642;BME280;19323;56.072;9.698;2023-02-23T14:10:18;100319.13;;;25.13;39.95
32642;BME280;19323;56.072;9.698;2023-02-23T14:13:28;100322.66;;;25.14;40.03
32642;BME280;19323;56.072;9.698;2023-02-23T14:17:58;100313.63;;;25.15;40.04
32642;BME280;19323;56.072;9.698;2023-02-23T14:23:12;100301.22;;;25.14;40.13
32642;BME280;19323;56.072;9.698;2023-02-23T14:29:08;100310.06;;;25.14;40.19
32642;BME280;19323;56.072;9.698;2023-02-23T14:31:04;100306.56;;;25.14;40.06